< < Back
Terminal Aerodrome Forecast


Current Version              Previous Versions:   1  2  3  4  5  6  7  8  9  

Terminal Aerodrome Forecast

621
FTUS42 KTAE 282321
TAFDHN
TAF
KDHN 282321Z 2900/2924 VRB06KT P6SM BKN100
     FM290200 VRB03KT P6SM SCT150
     FM291500 10005KT P6SM FEW050=

Latest METAR

496
SAUS70 KWBC 290200 RRA
MTRDHN
METAR KDHN 290153Z AUTO 02004KT 10SM CLR 22/20 A3020 RMK AO2 SLP220
T02170200


USA.gov is the U.S. government's official web portal to all federal, state and local government web resources and services.